Axion Estin — SW5988 — position and weather

sailwx.info

Track history (hours):
 
Tides and Currents Weather Stations Pressure Air Temp Water Temp Dewpoint Dewpoint Depression Visibility Wind Speed Wind Dir Waves Ship Positions

Axion Estin

Last reported at 2017-Oct-20 11:41 UTC. Time now 2017-Oct-20 12:26 UTC.
Position N 40°19' E 023°60'.

Length 48 m; draft 1.6 m.

Type: Ship. MMSI: 237025200.

Date/timePositionNaut miles runAvg speedWind from/ knotsBaromVisibWave heightAir tempDewpointWater temp
2017-Oct-20 11:41N 40°19' E 023°60'2 8.7
2017-Oct-20 11:29N 40°18' E 024°01'4 8.4
2017-Oct-20 10:58N 40°17' E 024°07'3 4.7
2017-Oct-20 10:24N 40°16' E 024°10'2 4.5
2017-Oct-20 10:00N 40°14' E 024°11'2 2.3
2017-Oct-20 09:06N 40°13' E 024°13'1 8.4
2017-Oct-20 09:01N 40°13' E 024°13'3 5.6
2017-Oct-20 08:30N 40°16' E 024°10'2 3.6
2017-Oct-20 08:00N 40°17' E 024°09'4 7.2
2017-Oct-20 07:28N 40°17' E 024°04'8 0.4
2017-Oct-19 12:07N 40°22' E 023°55'1 7.8
2017-Oct-19 12:00N 40°21' E 023°56'4 6.1
2017-Oct-19 11:20N 40°19' E 024°00'3 8.8
2017-Oct-19 11:00N 40°17' E 024°04'4 7.1
2017-Oct-19 10:27N 40°17' E 024°09'2 4.2
2017-Oct-19 10:00N 40°16' E 024°10'2 4.5
2017-Oct-19 09:30N 40°14' E 024°12'0 0.7
2017-Oct-19 08:49N 40°13' E 024°13'2 5.9
2017-Oct-19 08:31N 40°15' E 024°11'3 4.5
2017-Oct-19 07:53N 40°17' E 024°09'3 6.8
2017-Oct-19 07:31N 40°17' E 024°05'5 8.8
2017-Oct-19 06:58N 40°19' E 023°60'11 0.5
2017-Oct-18 09:56N 40°14' E 024°12'1 1.0
2017-Oct-18 09:15N 40°14' E 024°12'1 5.0
2017-Oct-18 08:59N 40°15' E 024°11'3 3.7
2017-Oct-18 08:10N 40°17' E 024°09'1 6.6
2017-Oct-18 07:59N 40°17' E 024°07'6 0.3
2017-Oct-17 11:38N 40°19' E 023°60'1 8.5
2017-Oct-17 11:29N 40°18' E 024°01'4 8.3
2017-Oct-17 11:00N 40°17' E 024°06'3 4.4
2017-Oct-17 10:25N 40°16' E 024°10'2 4.5
2017-Oct-17 10:01N 40°15' E 024°11'2 2.1
2017-Oct-17 09:08N 40°13' E 024°13'1 5.5
2017-Oct-17 08:58N 40°14' E 024°12'3 6.2
2017-Oct-17 08:28N 40°17' E 024°09'2 3.7
2017-Oct-17 07:58N 40°17' E 024°07'3 6.8
2017-Oct-17 07:31N 40°17' E 024°03'0 0.0
2017-Oct-16 11:04N 40°17' E 024°03'1 8.6
2017-Oct-16 11:00N 40°17' E 024°03'3 7.1
2017-Oct-16 10:30N 40°17' E 024°08'2 4.6
2017-Oct-16 09:59N 40°16' E 024°10'0 0.2
2017-Oct-16 08:25N 40°15' E 024°11'2 4.3
2017-Oct-16 07:55N 40°17' E 024°09'3 6.9
2017-Oct-16 07:29N 40°17' E 024°05'5 8.9
2017-Oct-16 06:58N 40°19' E 023°59'3 0.2
2017-Oct-15 15:17N 40°21' E 023°56'3 6.6
2017-Oct-15 14:49N 40°19' E 023°59'7 8.2
2017-Oct-15 14:00N 40°17' E 024°07'3 5.0
2017-Oct-15 13:25N 40°16' E 024°10'2 4.5
2017-Oct-15 13:00N 40°14' E 024°12'1 2.2
2017-Oct-15 12:28N 40°14' E 024°10'5 9.6
2017-Oct-15 11:56N 40°17' E 024°05'3 2.9
2017-Oct-15 10:53N 40°18' E 024°01'4 8.8
2017-Oct-15 10:27N 40°16' E 024°05'4 8.7
2017-Oct-15 10:00N 40°14' E 024°10'2 2.7
2017-Oct-15 09:08N 40°13' E 024°13'1 4.4
2017-Oct-15 08:55N 40°14' E 024°12'2 4.7
2017-Oct-15 08:30N 40°16' E 024°10'2 3.2
2017-Oct-15 08:00N 40°17' E 024°09'3 6.8
2017-Oct-15 07:30N 40°17' E 024°04'1 0.1
2017-Oct-14 11:31N 40°17' E 024°03'4 7.6
2017-Oct-14 10:59N 40°17' E 024°08'3 4.1
2017-Oct-14 10:14N 40°15' E 024°11'1 3.6
2017-Oct-14 09:59N 40°14' E 024°12'1 0.8
2017-Oct-14 08:58N 40°14' E 024°12'2 4.1
2017-Oct-14 08:23N 40°16' E 024°10'2 3.9
2017-Oct-14 07:53N 40°17' E 024°09'3 6.5
2017-Oct-14 07:30N 40°17' E 024°06'5 0.2
2017-Oct-13 11:45N 40°19' E 024°00'2 7.2
2017-Oct-13 11:24N 40°17' E 024°03'3 8.0
2017-Oct-13 10:59N 40°17' E 024°07'3 4.1
2017-Oct-13 10:16N 40°16' E 024°10'2 4.4
2017-Oct-13 09:49N 40°14' E 024°12'1 1.5
2017-Oct-13 09:03N 40°13' E 024°13'0 9.3
2017-Oct-13 09:00N 40°14' E 024°13'4 5.4
2017-Oct-13 08:20N 40°16' E 024°10'1 3.1
2017-Oct-13 08:00N 40°17' E 024°08'3 6.8
2017-Oct-13 07:30N 40°17' E 024°04'1 0.1
2017-Oct-12 11:23N 40°17' E 024°03'3 8.6
2017-Oct-12 11:00N 40°17' E 024°07'2 3.5
2017-Oct-12 10:26N 40°17' E 024°09'  
Track history (hours):
 
Tides and Currents Weather Stations Pressure Air Temp Water Temp Dewpoint Dewpoint Depression Visibility Wind Speed Wind Dir Waves Ship Positions

Axion Estin

Last reported at 2017-Oct-20 11:41 UTC. Time now 2017-Oct-20 12:27 UTC.
Position N 40°19' E 023°60'.

Length 48 m; draft 1.6 m.

Type: Ship. MMSI: 237025200.

Date/timePositionNaut miles runAvg speedWind from/ knotsBaromVisibWave heightAir tempDewpointWater temp
2017-Oct-20 11:41N 40°19' E 023°60'2 8.7
2017-Oct-20 11:29N 40°18' E 024°01'4 8.4
2017-Oct-20 10:58N 40°17' E 024°07'3 4.7
2017-Oct-20 10:24N 40°16' E 024°10'2 4.5
2017-Oct-20 10:00N 40°14' E 024°11'2 2.3
2017-Oct-20 09:06N 40°13' E 024°13'1 8.4
2017-Oct-20 09:01N 40°13' E 024°13'3 5.6
2017-Oct-20 08:30N 40°16' E 024°10'2 3.6
2017-Oct-20 08:00N 40°17' E 024°09'4 7.2
2017-Oct-20 07:28N 40°17' E 024°04'8 0.4
2017-Oct-19 12:07N 40°22' E 023°55'1 7.8
2017-Oct-19 12:00N 40°21' E 023°56'4 6.1
2017-Oct-19 11:20N 40°19' E 024°00'3 8.8
2017-Oct-19 11:00N 40°17' E 024°04'4 7.1
2017-Oct-19 10:27N 40°17' E 024°09'2 4.2
2017-Oct-19 10:00N 40°16' E 024°10'2 4.5
2017-Oct-19 09:30N 40°14' E 024°12'0 0.7
2017-Oct-19 08:49N 40°13' E 024°13'2 5.9
2017-Oct-19 08:31N 40°15' E 024°11'3 4.5
2017-Oct-19 07:53N 40°17' E 024°09'3 6.8
2017-Oct-19 07:31N 40°17' E 024°05'5 8.8
2017-Oct-19 06:58N 40°19' E 023°60'11 0.5
2017-Oct-18 09:56N 40°14' E 024°12'1 1.0
2017-Oct-18 09:15N 40°14' E 024°12'1 5.0
2017-Oct-18 08:59N 40°15' E 024°11'3 3.7
2017-Oct-18 08:10N 40°17' E 024°09'1 6.6
2017-Oct-18 07:59N 40°17' E 024°07'6 0.3
2017-Oct-17 11:38N 40°19' E 023°60'1 8.5
2017-Oct-17 11:29N 40°18' E 024°01'4 8.3
2017-Oct-17 11:00N 40°17' E 024°06'3 4.4
2017-Oct-17 10:25N 40°16' E 024°10'2 4.5
2017-Oct-17 10:01N 40°15' E 024°11'2 2.1
2017-Oct-17 09:08N 40°13' E 024°13'1 5.5
2017-Oct-17 08:58N 40°14' E 024°12'3 6.2
2017-Oct-17 08:28N 40°17' E 024°09'2 3.7
2017-Oct-17 07:58N 40°17' E 024°07'3 6.8
2017-Oct-17 07:31N 40°17' E 024°03'0 0.0
2017-Oct-16 11:04N 40°17' E 024°03'1 8.6
2017-Oct-16 11:00N 40°17' E 024°03'3 7.1
2017-Oct-16 10:30N 40°17' E 024°08'2 4.6
2017-Oct-16 09:59N 40°16' E 024°10'0 0.2
2017-Oct-16 08:25N 40°15' E 024°11'2 4.3
2017-Oct-16 07:55N 40°17' E 024°09'3 6.9
2017-Oct-16 07:29N 40°17' E 024°05'5 8.9
2017-Oct-16 06:58N 40°19' E 023°59'3 0.2
2017-Oct-15 15:17N 40°21' E 023°56'3 6.6
2017-Oct-15 14:49N 40°19' E 023°59'7 8.2
2017-Oct-15 14:00N 40°17' E 024°07'3 5.0
2017-Oct-15 13:25N 40°16' E 024°10'2 4.5
2017-Oct-15 13:00N 40°14' E 024°12'1 2.2
2017-Oct-15 12:28N 40°14' E 024°10'5 9.6
2017-Oct-15 11:56N 40°17' E 024°05'3 2.9
2017-Oct-15 10:53N 40°18' E 024°01'4 8.8
2017-Oct-15 10:27N 40°16' E 024°05'4 8.7
2017-Oct-15 10:00N 40°14' E 024°10'2 2.7
2017-Oct-15 09:08N 40°13' E 024°13'1 4.4
2017-Oct-15 08:55N 40°14' E 024°12'2 4.7
2017-Oct-15 08:30N 40°16' E 024°10'2 3.2
2017-Oct-15 08:00N 40°17' E 024°09'3 6.8
2017-Oct-15 07:30N 40°17' E 024°04'1 0.1
2017-Oct-14 11:31N 40°17' E 024°03'4 7.6
2017-Oct-14 10:59N 40°17' E 024°08'3 4.1
2017-Oct-14 10:14N 40°15' E 024°11'1 3.6
2017-Oct-14 09:59N 40°14' E 024°12'1 0.8
2017-Oct-14 08:58N 40°14' E 024°12'2 4.1
2017-Oct-14 08:23N 40°16' E 024°10'2 3.9
2017-Oct-14 07:53N 40°17' E 024°09'3 6.5
2017-Oct-14 07:30N 40°17' E 024°06'5 0.2
2017-Oct-13 11:45N 40°19' E 024°00'2 7.2
2017-Oct-13 11:24N 40°17' E 024°03'3 8.0
2017-Oct-13 10:59N 40°17' E 024°07'3 4.1
2017-Oct-13 10:16N 40°16' E 024°10'2 4.4
2017-Oct-13 09:49N 40°14' E 024°12'1 1.5
2017-Oct-13 09:03N 40°13' E 024°13'0 9.3
2017-Oct-13 09:00N 40°14' E 024°13'4 5.4
2017-Oct-13 08:20N 40°16' E 024°10'1 3.1
2017-Oct-13 08:00N 40°17' E 024°08'3 6.8
2017-Oct-13 07:30N 40°17' E 024°04'1 0.1
2017-Oct-12 11:23N 40°17' E 024°03'3 8.6
2017-Oct-12 11:00N 40°17' E 024°07'2 3.5
2017-Oct-12 10:26N 40°17' E 024°09'  

Dump ship's entire track history